Time;durP1;ratioP1;P1;durP2;ratioP2;P2;SDS_P1;SDS_P2;PMS_P1;PMS_P2;Temp;Humidity;BMP_temperature;BMP_pressure;BME280_temperature;BME280_humidity;BME280_pressure;Samples;Min_cycle;Max_cycle;Signal;HPM_P1;HPM_P2
2021/05/03 00:00:22;;;;;;;6.60;5.87;;;8.00;51.30;;;;;;6248335;22;38073;-75
2021/05/03 00:02:49;;;;;;;6.77;6.00;;;8.00;51.10;;;;;;6248079;22;38114;-77
2021/05/03 00:05:21;;;;;;;6.97;5.97;;;8.00;51.10;;;;;;6223335;22;38393;-77
2021/05/03 00:07:49;;;;;;;6.27;5.67;;;7.90;51.20;;;;;;6249206;22;39189;-77
2021/05/03 00:10:16;;;;;;;5.80;5.30;;;7.80;51.60;;;;;;6249174;22;38265;-78
2021/05/03 00:12:44;;;;;;;6.70;6.00;;;7.80;51.80;;;;;;6222663;22;35870;-80
2021/05/03 00:15:15;;;;;;;6.33;5.73;;;7.70;52.00;;;;;;6249787;22;40753;-79
2021/05/03 00:17:42;;;;;;;7.13;5.97;;;7.70;51.90;;;;;;6250002;22;39733;-80
2021/05/03 00:20:11;;;;;;;6.80;5.53;;;7.70;51.80;;;;;;6227227;22;36519;-80
2021/05/03 00:22:41;;;;;;;7.80;6.47;;;7.70;51.70;;;;;;6257118;22;38451;-83
2021/05/03 00:25:11;;;;;;;7.10;6.20;;;7.70;51.60;;;;;;6224851;22;38506;-80
2021/05/03 00:27:39;;;;;;;7.13;6.43;;;7.60;51.70;;;;;;6249778;22;39774;-78
2021/05/03 00:30:10;;;;;;;6.97;6.27;;;7.60;51.80;;;;;;6250263;22;38645;-76
2021/05/03 00:32:37;;;;;;;7.07;6.30;;;7.40;51.90;;;;;;6249937;22;37865;-76
2021/05/03 00:35:08;;;;;;;7.27;6.53;;;7.30;52.10;;;;;;6250048;22;39521;-76
2021/05/03 00:37:35;;;;;;;7.27;6.57;;;7.20;52.20;;;;;;6223563;22;37666;-77
2021/05/03 00:40:02;;;;;;;7.53;6.60;;;7.00;52.40;;;;;;6251267;22;37914;-77
2021/05/03 00:42:29;;;;;;;9.80;7.70;;;6.90;52.70;;;;;;6251337;22;38090;-76
2021/05/03 00:45:04;;;;;;;7.70;6.90;;;6.80;52.90;;;;;;6251278;22;40626;-78
2021/05/03 00:47:32;;;;;;;10.70;8.50;;;6.70;53.30;;;;;;6251305;22;39258;-78
2021/05/03 00:50:00;;;;;;;10.77;7.90;;;6.60;53.30;;;;;;6251125;22;38893;-80
2021/05/03 00:52:29;;;;;;;7.83;7.10;;;6.50;53.60;;;;;;6223791;22;36744;-79
2021/05/03 00:54:56;;;;;;;9.07;7.60;;;6.40;53.90;;;;;;6251093;22;40442;-79
2021/05/03 00:57:23;;;;;;;10.20;7.30;;;6.30;53.90;;;;;;6223250;22;37672;-80
2021/05/03 00:59:50;;;;;;;13.40;8.63;;;6.30;54.50;;;;;;6251456;22;38264;-80
2021/05/03 01:02:17;;;;;;;9.97;8.87;;;6.10;55.20;;;;;;6251537;22;38083;-77
2021/05/03 01:04:44;;;;;;;9.30;8.03;;;6.00;54.80;;;;;;6250828;22;40005;-79
2021/05/03 01:07:12;;;;;;;8.53;7.67;;;5.90;55.10;;;;;;6223137;22;37810;-78
2021/05/03 01:09:39;;;;;;;9.93;8.47;;;5.90;55.10;;;;;;6223607;22;36670;-78
2021/05/03 01:12:07;;;;;;;8.90;7.97;;;5.90;55.60;;;;;;6250709;22;36848;-78
2021/05/03 01:14:34;;;;;;;8.97;8.07;;;5.80;55.50;;;;;;6223786;22;39390;-78
2021/05/03 01:17:01;;;;;;;9.70;8.63;;;5.70;55.80;;;;;;6251197;22;39161;-78
2021/05/03 01:19:30;;;;;;;9.93;8.93;;;5.60;56.10;;;;;;6223044;22;36654;-79
2021/05/03 01:21:58;;;;;;;10.50;9.20;;;5.60;56.50;;;;;;6251150;22;37320;-79
2021/05/03 01:24:25;;;;;;;10.23;9.23;;;5.50;56.60;;;;;;6224284;22;38575;-80
2021/05/03 01:26:53;;;;;;;12.20;10.50;;;5.50;56.90;;;;;;6249646;22;38847;-81
2021/05/03 01:29:20;;;;;;;11.07;9.97;;;5.40;57.20;;;;;;6224674;22;36324;-78
2021/05/03 01:31:48;;;;;;;11.40;10.13;;;5.40;57.60;;;;;;6250886;22;37137;-77
2021/05/03 01:34:16;;;;;;;10.70;9.60;;;5.30;57.70;;;;;;6251126;22;39922;-78
2021/05/03 01:36:44;;;;;;;13.33;9.80;;;5.30;58.10;;;;;;6251123;22;39922;-78
2021/05/03 01:39:15;;;;;;;13.70;10.80;;;5.30;58.30;;;;;;6251222;22;38378;-80
2021/05/03 01:41:43;;;;;;;11.50;10.30;;;5.20;58.40;;;;;;6251262;22;37680;-79
2021/05/03 01:44:11;;;;;;;12.17;9.87;;;5.20;58.80;;;;;;6252874;22;40678;-79
2021/05/03 01:46:41;;;;;;;11.90;10.17;;;5.30;59.00;;;;;;6250804;22;39808;-80
2021/05/03 01:49:09;;;;;;;10.30;9.03;;;5.30;59.20;;;;;;6226101;22;38393;-79
2021/05/03 01:51:37;;;;;;;10.73;9.63;;;5.30;59.30;;;;;;6254053;22;37323;-79
2021/05/03 01:54:08;;;;;;;10.20;8.90;;;5.30;59.40;;;;;;6253050;22;40315;-79
2021/05/03 01:56:36;;;;;;;12.40;9.83;;;5.40;59.50;;;;;;6252346;22;40218;-79
2021/05/03 01:59:06;;;;;;;10.13;9.07;;;5.40;59.60;;;;;;6225750;22;37767;-79
2021/05/03 02:01:33;;;;;;;11.33;9.50;;;5.60;59.60;;;;;;6251458;22;37101;-79
2021/05/03 02:04:00;;;;;;;9.90;8.90;;;5.60;59.30;;;;;;6224236;22;38682;-80
2021/05/03 02:06:27;;;;;;;12.30;8.93;;;5.60;59.20;;;;;;6253048;22;39160;-77
2021/05/03 02:08:54;;;;;;;10.03;8.70;;;5.70;59.30;;;;;;6252156;22;38824;-80
2021/05/03 02:11:21;;;;;;;10.53;8.67;;;5.80;59.20;;;;;;6254543;22;37280;-77
2021/05/03 02:13:49;;;;;;;9.53;7.93;;;5.80;59.20;;;;;;6235450;22;38789;-78
2021/05/03 02:16:18;;;;;;;12.30;9.00;;;5.90;59.00;;;;;;6264491;22;40110;-77
2021/05/03 02:18:45;;;;;;;9.47;8.33;;;5.90;58.90;;;;;;6249196;22;38171;-79
2021/05/03 02:21:12;;;;;;;13.90;10.40;;;6.00;59.00;;;;;;6245201;22;37221;-78
2021/05/03 02:23:39;;;;;;;12.43;11.00;;;6.00;58.60;;;;;;6258812;22;40315;-78
2021/05/03 02:26:06;;;;;;;11.03;9.93;;;6.00;58.60;;;;;;6225271;22;37656;-78
2021/05/03 02:28:35;;;;;;;11.13;9.70;;;6.10;58.40;;;;;;6251747;22;37843;-78
2021/05/03 02:31:07;;;;;;;11.83;10.00;;;6.10;58.20;;;;;;6252038;22;37365;-78
2021/05/03 02:33:34;;;;;;;11.87;9.20;;;6.10;58.00;;;;;;6225193;22;38549;-78
2021/05/03 02:36:02;;;;;;;13.93;10.40;;;6.10;57.80;;;;;;6223013;22;38176;-79
2021/05/03 02:38:30;;;;;;;11.43;9.40;;;6.10;57.60;;;;;;6223915;22;37663;-78
2021/05/03 02:40:58;;;;;;;11.60;9.57;;;6.10;57.40;;;;;;6251621;22;37473;-79
2021/05/03 02:43:25;;;;;;;11.60;9.90;;;6.00;57.00;;;;;;6251053;22;40455;-79
2021/05/03 02:45:54;;;;;;;14.40;10.10;;;5.90;57.00;;;;;;6252725;22;39134;-79
2021/05/03 02:48:22;;;;;;;17.93;10.57;;;5.80;57.30;;;;;;6253223;22;38067;-78
2021/05/03 02:50:49;;;;;;;11.83;10.07;;;5.80;57.30;;;;;;6250522;22;37430;-79
2021/05/03 02:53:18;;;;;;;11.97;10.47;;;5.80;57.60;;;;;;6223761;22;39690;-79
2021/05/03 02:55:47;;;;;;;11.47;10.20;;;5.80;57.80;;;;;;6250609;22;39017;-78
2021/05/03 02:58:16;;;;;;;10.43;9.33;;;5.70;57.70;;;;;;6251064;22;38936;-78
2021/05/03 03:00:44;;;;;;;12.53;9.57;;;5.70;57.70;;;;;;6251933;22;37813;-78
2021/05/03 03:03:11;;;;;;;11.70;9.57;;;5.70;57.80;;;;;;6252177;22;40620;-78
2021/05/03 03:05:41;;;;;;;11.07;9.90;;;5.60;58.00;;;;;;6224570;22;37649;-77
2021/05/03 03:08:08;;;;;;;10.80;9.10;;;5.60;58.00;;;;;;6223647;22;36611;-79
2021/05/03 03:10:35;;;;;;;12.20;9.90;;;5.60;58.10;;;;;;6223798;22;36989;-79
2021/05/03 03:13:04;;;;;;;11.87;9.37;;;5.70;58.20;;;;;;6251941;22;39887;-79
2021/05/03 03:15:33;;;;;;;12.43;9.40;;;5.60;58.00;;;;;;6249659;22;39067;-79
2021/05/03 03:18:01;;;;;;;10.40;9.40;;;5.60;57.90;;;;;;6251363;22;38107;-79
2021/05/03 03:20:31;;;;;;;12.23;9.53;;;5.50;57.70;;;;;;6251767;22;37866;-79
2021/05/03 03:22:59;;;;;;;12.20;10.20;;;5.40;57.70;;;;;;6224091;22;39165;-79
2021/05/03 03:25:29;;;;;;;14.00;11.60;;;5.40;57.80;;;;;;6250188;22;38801;-78
2021/05/03 03:27:57;;;;;;;13.70;11.60;;;5.30;57.80;;;;;;6223661;22;37021;-78
2021/05/03 03:30:24;;;;;;;12.97;11.07;;;5.20;57.90;;;;;;6250128;22;37470;-78
2021/05/03 03:32:51;;;;;;;13.03;11.53;;;5.10;58.00;;;;;;6250007;22;39802;-78
2021/05/03 03:35:21;;;;;;;13.73;11.60;;;5.00;58.00;;;;;;6249946;22;39907;-79
2021/05/03 03:37:49;;;;;;;14.90;11.93;;;5.00;58.10;;;;;;6250512;22;38135;-79
2021/05/03 03:40:18;;;;;;;15.57;12.63;;;4.90;58.50;;;;;;6250346;22;37195;-78
2021/05/03 03:42:46;;;;;;;15.03;12.20;;;4.80;58.60;;;;;;6250340;22;39660;-79
2021/05/03 03:45:14;;;;;;;16.00;13.80;;;4.80;58.90;;;;;;6250616;22;39667;-79
2021/05/03 03:47:41;;;;;;;16.57;13.23;;;4.80;59.10;;;;;;6250130;22;38127;-79
2021/05/03 03:50:12;;;;;;;15.03;12.77;;;4.80;59.30;;;;;;6224483;22;37304;-79
2021/05/03 03:52:39;;;;;;;13.33;11.93;;;4.70;59.30;;;;;;6222807;22;38334;-79
2021/05/03 03:55:09;;;;;;;17.23;12.17;;;4.70;59.30;;;;;;6249753;22;39975;-79
2021/05/03 03:57:38;;;;;;;15.60;13.23;;;4.70;59.70;;;;;;6249701;22;38020;-79
2021/05/03 04:00:06;;;;;;;17.77;13.70;;;4.70;60.10;;;;;;6250380;22;38447;-79
2021/05/03 04:02:34;;;;;;;17.10;12.80;;;4.70;60.50;;;;;;6249216;22;39728;-80
2021/05/03 04:07:47;;;;;;;14.80;12.10;;;4.90;61.20;;;;;;6245993;22;38981;-79
2021/05/03 04:10:27;;;;;;;15.20;12.10;;;5.00;61.30;;;;;;6250269;22;37656;-78
2021/05/03 04:13:20;;;;;;;14.50;11.93;;;5.20;61.50;;;;;;6249997;22;40873;-78
2021/05/03 04:21:19;;;;;;;12.03;10.83;;;5.50;60.80;;;;;;6250454;22;38000;-79
2021/05/03 04:23:53;;;;;;;12.17;10.63;;;5.60;60.60;;;;;;6250501;22;39672;-79
2021/05/03 04:26:22;;;;;;;12.40;11.10;;;5.80;59.70;;;;;;6250274;22;39373;-79
2021/05/03 04:28:52;;;;;;;12.20;10.20;;;5.90;59.30;;;;;;6249851;22;38043;-79
2021/05/03 04:31:19;;;;;;;14.50;11.97;;;6.00;58.80;;;;;;6249275;22;37736;-79
2021/05/03 04:33:47;;;;;;;12.53;10.47;;;6.10;58.40;;;;;;6249714;22;39480;-79
2021/05/03 04:36:14;;;;;;;13.73;10.20;;;6.10;58.00;;;;;;6228495;22;37659;-79
2021/05/03 04:38:41;;;;;;;11.43;10.20;;;6.10;57.20;;;;;;6266627;22;38473;-78
2021/05/03 04:41:09;;;;;;;12.57;10.60;;;6.10;56.90;;;;;;6279717;22;38547;-78
2021/05/03 04:43:36;;;;;;;12.03;10.07;;;6.00;56.70;;;;;;6277509;22;41193;-79
2021/05/03 04:46:04;;;;;;;12.33;10.13;;;6.00;56.50;;;;;;6257432;22;39541;-79
2021/05/03 04:48:32;;;;;;;13.93;10.77;;;5.90;56.30;;;;;;6250959;22;39016;-78
2021/05/03 04:50:59;;;;;;;12.00;10.27;;;5.90;56.20;;;;;;6249768;22;37228;-79
2021/05/03 04:53:26;;;;;;;17.80;10.23;;;5.90;56.40;;;;;;6250177;22;39718;-79
2021/05/03 04:55:53;;;;;;;12.30;9.87;;;5.90;56.40;;;;;;6251463;22;39147;-80
2021/05/03 04:58:20;;;;;;;12.07;9.63;;;6.00;56.80;;;;;;6252975;22;38242;-79
2021/05/03 05:00:48;;;;;;;13.13;9.90;;;6.20;56.60;;;;;;6251830;22;37471;-79
2021/05/03 05:03:16;;;;;;;10.40;8.53;;;6.40;56.20;;;;;;6253001;22;39801;-81
2021/05/03 05:05:45;;;;;;;10.30;9.20;;;6.60;56.20;;;;;;6223166;22;37871;-81
2021/05/03 05:08:12;;;;;;;9.70;8.50;;;6.80;55.90;;;;;;6249634;22;38263;-79
2021/05/03 05:10:39;;;;;;;11.00;8.73;;;7.00;55.20;;;;;;6250105;22;37348;-80
2021/05/03 05:13:09;;;;;;;9.07;8.17;;;7.20;54.10;;;;;;6249630;22;39743;-80
2021/05/03 05:15:37;;;;;;;9.53;8.63;;;7.40;53.80;;;;;;6222878;22;37902;-79
2021/05/03 05:18:04;;;;;;;10.53;8.53;;;7.60;53.20;;;;;;6249788;22;37968;-79
2021/05/03 05:20:32;;;;;;;10.40;9.40;;;7.80;52.50;;;;;;6250044;22;37790;-79
2021/05/03 05:22:59;;;;;;;11.30;8.30;;;8.00;51.90;;;;;;6250473;22;39671;-79
2021/05/03 05:25:26;;;;;;;14.53;9.40;;;8.30;51.50;;;;;;6251806;22;39853;-80
2021/05/03 05:27:53;;;;;;;12.00;8.80;;;8.60;51.60;;;;;;6253113;22;38924;-79
2021/05/03 05:30:20;;;;;;;9.00;7.90;;;9.00;50.50;;;;;;6251970;22;37451;-79
2021/05/03 05:32:47;;;;;;;6.73;6.07;;;10.40;49.20;;;;;;6224486;22;39251;-80
2021/05/03 05:35:14;;;;;;;11.17;9.07;;;12.50;44.60;;;;;;6251560;22;38840;-79
2021/05/03 05:37:42;;;;;;;9.10;7.80;;;13.60;40.70;;;;;;6251287;22;39057;-79
2021/05/03 05:40:10;;;;;;;10.20;9.30;;;14.30;37.70;;;;;;6251285;22;38007;-79
2021/05/03 05:42:37;;;;;;;9.80;7.77;;;14.80;36.60;;;;;;6251134;22;39827;-79
2021/05/03 05:45:08;;;;;;;10.03;9.13;;;15.20;36.40;;;;;;6251538;22;38989;-80
2021/05/03 05:47:35;;;;;;;9.47;8.63;;;15.70;34.40;;;;;;6249172;22;38035;-80
2021/05/03 05:50:02;;;;;;;13.40;10.70;;;16.50;34.40;;;;;;6250982;22;38153;-81
2021/05/03 05:52:31;;;;;;;11.40;9.60;;;17.50;32.50;;;;;;6250586;22;40195;-80
2021/05/03 05:54:59;;;;;;;9.13;8.27;;;18.10;31.50;;;;;;6252123;22;40061;-80
2021/05/03 05:57:26;;;;;;;9.77;8.87;;;18.90;30.00;;;;;;6253643;22;39279;-80
2021/05/03 05:59:53;;;;;;;26.60;9.73;;;19.20;29.30;;;;;;6224422;22;36526;-80
2021/05/03 06:02:22;;;;;;;11.13;9.77;;;18.90;29.30;;;;;;6224038;22;39315;-80
2021/05/03 06:04:52;;;;;;;8.63;7.83;;;18.30;29.80;;;;;;6224078;22;39063;-80
2021/05/03 06:07:19;;;;;;;12.30;9.10;;;18.00;30.00;;;;;;6223392;22;36753;-80
2021/05/03 06:09:46;;;;;;;8.90;8.00;;;17.50;30.40;;;;;;6251415;22;38189;-80
2021/05/03 06:12:14;;;;;;;9.77;8.77;;;16.80;30.80;;;;;;6250933;22;40951;-80
2021/05/03 06:14:41;;;;;;;9.10;8.20;;;16.10;31.80;;;;;;6251086;22;39162;-80
2021/05/03 06:17:09;;;;;;;9.20;8.40;;;15.40;32.70;;;;;;6251502;22;38173;-80
2021/05/03 06:19:36;;;;;;;8.80;8.00;;;15.20;33.00;;;;;;6223798;22;36980;-80
2021/05/03 06:22:03;;;;;;;10.00;9.00;;;14.90;33.50;;;;;;6251519;22;39455;-79
2021/05/03 06:24:30;;;;;;;10.60;9.33;;;14.80;33.60;;;;;;6251413;22;40028;-80
2021/05/03 06:26:57;;;;;;;10.67;8.70;;;14.80;34.40;;;;;;6250690;22;38746;-79
2021/05/03 06:29:25;;;;;;;10.30;8.97;;;14.60;34.40;;;;;;6251074;22;37950;-78
2021/05/03 06:31:52;;;;;;;9.43;8.53;;;14.40;34.40;;;;;;6250648;22;40417;-78
2021/05/03 06:34:19;;;;;;;11.20;9.07;;;14.20;35.10;;;;;;6250510;22;40393;-78
2021/05/03 06:36:46;;;;;;;9.53;7.83;;;14.20;35.30;;;;;;6223564;22;37590;-79
2021/05/03 06:39:15;;;;;;;10.10;8.80;;;14.20;35.50;;;;;;6222749;22;35792;-79
2021/05/03 06:41:42;;;;;;;10.00;9.00;;;14.20;35.90;;;;;;6251315;22;39727;-79
2021/05/03 06:44:09;;;;;;;8.70;7.17;;;14.20;35.70;;;;;;6252154;22;39799;-77
2021/05/03 06:46:39;;;;;;;8.40;7.60;;;14.30;35.90;;;;;;6226114;22;36871;-78
2021/05/03 06:49:06;;;;;;;8.90;8.10;;;14.50;35.30;;;;;;6252807;22;37544;-79
2021/05/03 06:51:35;;;;;;;9.80;7.67;;;14.90;35.40;;;;;;6253292;22;40810;-79
2021/05/03 06:54:03;;;;;;;9.50;8.40;;;15.30;34.20;;;;;;6252780;22;39302;-78
2021/05/03 06:56:30;;;;;;;11.50;9.10;;;15.70;34.10;;;;;;6252552;22;38057;-78
2021/05/03 06:58:57;;;;;;;8.97;8.07;;;16.10;33.90;;;;;;6252467;22;36837;-78
2021/05/03 07:01:24;;;;;;;9.27;8.20;;;17.00;33.20;;;;;;6252471;22;39660;-78
2021/05/03 07:03:52;;;;;;;10.63;9.00;;;18.10;31.50;;;;;;6261094;22;38750;-78
2021/05/03 07:06:19;;;;;;;10.03;9.10;;;18.90;29.50;;;;;;6273820;22;38281;-78
2021/05/03 07:08:46;;;;;;;12.17;9.50;;;19.00;29.40;;;;;;6275892;22;38681;-77
2021/05/03 07:11:15;;;;;;;11.30;9.13;;;19.80;30.40;;;;;;6267143;22;40076;-78
2021/05/03 07:13:43;;;;;;;9.53;8.63;;;21.80;28.30;;;;;;6253981;22;39108;-79
2021/05/03 07:16:10;;;;;;;12.17;10.53;;;24.00;25.80;;;;;;6252776;22;39419;-80
2021/05/03 07:18:40;;;;;;;11.07;9.93;;;24.60;24.20;;;;;;6252449;22;37729;-80
2021/05/03 07:21:10;;;;;;;9.50;8.70;;;24.20;24.10;;;;;;6252857;22;39562;-80
2021/05/03 07:23:39;;;;;;;14.03;10.23;;;22.90;24.40;;;;;;6253291;22;38871;-81
2021/05/03 07:26:07;;;;;;;13.00;10.60;;;21.40;25.50;;;;;;6253496;22;39136;-81
2021/05/03 07:28:34;;;;;;;24.20;9.80;;;20.50;26.50;;;;;;6253698;22;37391;-80
2021/05/03 07:31:04;;;;;;;14.50;9.13;;;19.70;27.50;;;;;;6229627;22;38442;-80
2021/05/03 07:33:31;;;;;;;12.30;9.50;;;19.00;27.80;;;;;;6253368;22;38917;-81
2021/05/03 07:35:58;;;;;;;7.83;7.23;;;19.20;29.30;;;;;;6252623;22;38858;-79
2021/05/03 07:38:26;;;;;;;9.50;8.57;;;20.40;27.30;;;;;;6252516;22;38285;-80
2021/05/03 07:40:53;;;;;;;9.77;7.30;;;21.50;26.00;;;;;;6253136;22;41138;-81
2021/05/03 07:43:21;;;;;;;10.53;8.83;;;23.30;25.40;;;;;;6253117;22;40577;-82
2021/05/03 07:45:48;;;;;;;8.30;7.50;;;25.40;24.30;;;;;;6225260;22;36490;-81
2021/05/03 07:48:17;;;;;;;7.83;7.03;;;27.10;22.30;;;;;;6252071;22;38158;-82
2021/05/03 07:50:44;;;;;;;9.20;7.73;;;28.90;20.90;;;;;;6252113;22;39684;-82
2021/05/03 07:53:11;;;;;;;7.27;6.67;;;30.20;19.80;;;;;;6224377;22;37675;-81
2021/05/03 07:55:39;;;;;;;9.90;7.60;;;31.80;18.50;;;;;;6251841;22;38312;-80
2021/05/03 07:58:07;;;;;;;7.73;7.03;;;33.50;17.40;;;;;;6251548;22;37369;-79
2021/05/03 08:00:34;;;;;;;7.30;6.60;;;33.50;16.60;;;;;;6251434;22;41052;-79
2021/05/03 08:03:01;;;;;;;7.17;6.63;;;33.90;16.20;;;;;;6223681;22;38526;-81
2021/05/03 08:05:29;;;;;;;7.87;6.53;;;34.10;15.40;;;;;;6251859;22;38693;-79
2021/05/03 08:07:56;;;;;;;13.30;6.27;;;34.50;14.40;;;;;;6251277;22;37865;-80
2021/05/03 08:10:23;;;;;;;6.93;6.23;;;35.50;14.70;;;;;;6252377;22;40066;-80
2021/05/03 08:12:53;;;;;;;6.83;6.13;;;36.30;14.10;;;;;;6250998;22;39138;-79
2021/05/03 08:15:23;;;;;;;6.87;6.37;;;36.30;13.30;;;;;;6252560;22;37797;-81
2021/05/03 08:17:50;;;;;;;6.17;5.50;;;36.80;13.30;;;;;;6224160;22;36120;-80
2021/05/03 08:20:18;;;;;;;5.63;5.00;;;37.40;12.90;;;;;;6251894;22;39434;-80
2021/05/03 08:22:47;;;;;;;7.10;6.50;;;37.90;12.60;;;;;;6253938;22;38530;-81
2021/05/03 08:25:15;;;;;;;6.53;6.03;;;37.50;12.50;;;;;;6253790;22;37940;-80
2021/05/03 08:27:44;;;;;;;7.73;6.00;;;37.70;12.70;;;;;;6252353;22;38259;-80
2021/05/03 08:30:14;;;;;;;6.73;6.13;;;38.00;12.20;;;;;;6252791;22;40462;-81
2021/05/03 08:32:43;;;;;;;6.30;5.80;;;38.40;11.30;;;;;;6252579;22;39061;-80
2021/05/03 08:35:10;;;;;;;5.83;5.43;;;38.30;11.10;;;;;;6251347;22;39553;-81
2021/05/03 08:37:37;;;;;;;6.10;5.60;;;38.90;10.90;;;;;;6253110;22;37226;-82
2021/05/03 08:40:06;;;;;;;5.50;5.10;;;39.40;10.30;;;;;;6252621;22;39602;-84
2021/05/03 08:42:33;;;;;;;5.97;5.37;;;39.70;10.20;;;;;;6252160;22;39942;-83
2021/05/03 08:45:02;;;;;;;6.83;5.40;;;39.80;9.80;;;;;;6251760;22;38430;-85
2021/05/03 08:47:35;;;;;;;5.30;4.90;;;40.40;9.80;;;;;;6253652;22;38656;-82
2021/05/03 08:50:09;;;;;;;5.97;4.53;;;40.60;8.80;;;;;;6255063;22;40401;-82
2021/05/03 08:52:42;;;;;;;4.60;4.30;;;41.00;8.60;;;;;;6232742;22;37668;-83
2021/05/03 08:55:12;;;;;;;4.83;4.50;;;40.50;8.70;;;;;;6232018;22;36753;-83
2021/05/03 08:57:39;;;;;;;5.33;4.93;;;39.50;8.40;;;;;;6259628;22;38043;-84
2021/05/03 09:00:12;;;;;;;4.30;4.00;;;38.20;8.30;;;;;;6232595;22;38306;-81
2021/05/03 09:02:40;;;;;;;4.20;3.90;;;38.60;8.80;;;;;;6253447;22;39782;-80
2021/05/03 09:05:09;;;;;;;3.47;3.20;;;37.10;8.90;;;;;;6253237;22;38380;-81
2021/05/03 09:07:36;;;;;;;3.80;3.40;;;35.00;8.30;;;;;;6253356;22;38280;-81
2021/05/03 09:10:14;;;;;;;3.33;2.90;;;33.10;9.00;;;;;;6252691;22;40286;-79
2021/05/03 09:12:41;;;;;;;4.60;3.93;;;31.00;9.50;;;;;;6253960;22;39216;-80
2021/05/03 09:15:09;;;;;;;5.07;4.67;;;29.40;10.60;;;;;;6253769;22;38519;-79
2021/05/03 09:17:38;;;;;;;5.17;4.17;;;27.90;11.30;;;;;;6253607;22;37257;-83
2021/05/03 09:20:08;;;;;;;3.80;3.50;;;26.40;12.20;;;;;;6232362;22;38392;-81
2021/05/03 09:22:40;;;;;;;3.53;3.23;;;25.10;12.60;;;;;;6274196;22;39774;-80
2021/05/03 09:25:45;;;;;;;12.00;4.23;;;24.30;14.60;;;;;;6280530;22;38671;-81
2021/05/03 09:28:15;;;;;;;6.80;4.60;;;24.50;14.10;;;;;;6243933;22;36777;-79
2021/05/03 09:30:44;;;;;;;3.87;3.57;;;24.40;14.90;;;;;;6258804;22;40709;-80
2021/05/03 09:33:19;;;;;;;4.37;3.97;;;24.00;14.80;;;;;;6255028;22;40235;-80
2021/05/03 09:35:50;;;;;;;4.10;3.80;;;23.70;15.30;;;;;;6230672;22;37688;-80
2021/05/03 09:38:37;;;;;;;8.63;4.90;;;22.80;15.80;;;;;;6259082;22;37287;-80
2021/05/03 09:41:12;;;;;;;7.30;5.20;;;21.70;17.60;;;;;;6255435;22;40708;-80
2021/05/03 09:43:41;;;;;;;11.73;5.63;;;20.50;19.50;;;;;;6226805;22;39044;-78
2021/05/03 09:46:34;;;;;;;5.90;5.30;;;19.50;20.50;;;;;;6227238;22;36909;-80
2021/05/03 09:49:04;;;;;;;6.80;4.67;;;18.70;21.20;;;;;;6254297;22;37232;-80
2021/05/03 09:51:43;;;;;;;4.97;4.10;;;18.00;21.70;;;;;;6253617;22;40121;-78
2021/05/03 09:54:12;;;;;;;4.87;4.47;;;17.40;22.50;;;;;;6253805;22;38995;-79
2021/05/03 09:56:52;;;;;;;5.90;4.80;;;16.50;23.10;;;;;;6253567;22;39071;-79
2021/05/03 09:59:45;;;;;;;6.33;4.83;;;15.90;24.20;;;;;;6255688;22;36959;-81
2021/05/03 10:02:16;;;;;;;7.30;5.60;;;15.60;25.90;;;;;;6203255;22;39741;-81
2021/05/03 10:04:53;;;;;;;17.10;6.37;;;15.60;26.20;;;;;;6258462;22;39051;-81
2021/05/03 10:07:24;;;;;;;9.33;5.13;;;15.70;26.00;;;;;;6259351;22;38218;-82
2021/05/03 10:10:00;;;;;;;7.40;5.97;;;16.00;26.00;;;;;;6263837;22;37776;-82
2021/05/03 10:12:27;;;;;;;6.90;5.13;;;16.20;26.10;;;;;;6261321;22;40357;-84
2021/05/03 10:14:57;;;;;;;10.57;6.20;;;16.40;24.90;;;;;;6260077;22;39382;-82
2021/05/03 10:17:26;;;;;;;6.93;5.50;;;16.60;25.50;;;;;;6256853;22;39561;-81
2021/05/03 10:19:57;;;;;;;7.80;5.93;;;16.80;24.50;;;;;;6255754;22;38183;-81
2021/05/03 10:22:29;;;;;;;12.27;5.53;;;16.90;24.70;;;;;;6229668;22;38430;-82
2021/05/03 10:25:00;;;;;;;6.73;5.07;;;17.20;25.00;;;;;;6258608;22;39728;-80
2021/05/03 10:27:27;;;;;;;10.27;5.30;;;17.50;24.20;;;;;;6258184;22;37871;-81
2021/05/03 10:30:08;;;;;;;5.90;5.30;;;17.70;24.10;;;;;;6256361;22;36979;-81
2021/05/03 10:32:36;;;;;;;7.07;5.30;;;17.80;23.70;;;;;;6256749;22;39721;-81
2021/05/03 10:35:04;;;;;;;4.97;4.33;;;18.00;22.60;;;;;;6256228;22;39128;-80
2021/05/03 10:37:51;;;;;;;5.30;4.73;;;18.00;22.20;;;;;;6227174;22;36489;-80
2021/05/03 10:40:50;;;;;;;4.80;4.30;;;18.30;22.00;;;;;;6226422;22;36399;-81
2021/05/03 10:43:28;;;;;;;6.50;5.20;;;18.80;20.70;;;;;;6225199;22;38021;-80
2021/05/03 10:48:57;;;;;;;4.57;3.80;;;20.10;20.00;;;;;;6252454;22;39075;-80
2021/05/03 10:51:56;;;;;;;7.13;4.23;;;21.10;18.20;;;;;;6254173;22;37746;-81
2021/05/03 10:54:52;;;;;;;5.23;4.73;;;21.70;17.60;;;;;;6228695;22;39327;-80
2021/05/03 10:57:36;;;;;;;4.73;4.20;;;21.70;17.00;;;;;;6258293;22;38913;-82
2021/05/03 11:00:10;;;;;;;4.20;3.90;;;20.90;17.70;;;;;;6255627;22;38036;-80
2021/05/03 11:02:48;;;;;;;4.10;3.70;;;20.90;17.80;;;;;;6261889;22;37574;-82
2021/05/03 11:05:23;;;;;;;5.93;4.40;;;21.30;17.80;;;;;;6233413;22;39017;-80
2021/05/03 11:08:16;;;;;;;5.50;5.00;;;21.60;18.30;;;;;;6261509;22;39342;-81
2021/05/03 11:11:07;;;;;;;5.20;4.50;;;21.70;17.20;;;;;;6259186;22;37921;-80
2021/05/03 11:13:58;;;;;;;7.20;4.60;;;21.70;18.00;;;;;;6263667;22;37106;-80
2021/05/03 11:16:48;;;;;;;7.10;4.57;;;21.60;18.10;;;;;;6234725;22;40334;-80
2021/05/03 11:19:35;;;;;;;4.77;4.37;;;21.40;18.90;;;;;;6234442;22;37950;-79
2021/05/03 11:22:03;;;;;;;4.03;3.63;;;21.10;18.40;;;;;;6237225;22;36968;-81
2021/05/03 11:24:33;;;;;;;4.20;3.80;;;20.90;17.90;;;;;;6262082;22;37571;-81
2021/05/03 11:27:04;;;;;;;4.70;3.47;;;20.70;17.60;;;;;;6262861;22;39706;-80
2021/05/03 11:29:40;;;;;;;7.73;3.23;;;20.90;17.80;;;;;;6262346;22;39306;-81
2021/05/03 11:32:07;;;;;;;4.00;3.60;;;21.40;17.60;;;;;;6262926;22;38186;-80
2021/05/03 11:34:44;;;;;;;4.63;4.27;;;21.80;16.90;;;;;;6269056;22;39489;-77
2021/05/03 11:37:15;;;;;;;4.63;4.23;;;21.80;17.10;;;;;;6278828;22;40078;-80
2021/05/03 11:39:52;;;;;;;5.33;4.67;;;21.40;17.60;;;;;;6278137;22;40387;-80
2021/05/03 11:42:53;;;;;;;4.47;4.07;;;20.50;17.20;;;;;;6268384;22;39469;-80
2021/05/03 11:45:28;;;;;;;4.57;4.17;;;19.80;19.00;;;;;;6260122;22;37309;-80
2021/05/03 11:47:58;;;;;;;5.00;4.60;;;19.80;19.90;;;;;;6259009;22;39731;-80
2021/05/03 11:50:28;;;;;;;5.30;4.30;;;19.70;19.90;;;;;;6257051;22;39361;-80
2021/05/03 11:52:55;;;;;;;5.60;4.53;;;19.70;19.80;;;;;;6259761;22;38295;-80
2021/05/03 11:55:26;;;;;;;6.33;4.40;;;19.80;19.40;;;;;;6258744;22;38597;-79
2021/05/03 11:57:55;;;;;;;4.77;4.27;;;20.10;19.30;;;;;;6259372;22;40217;-80
2021/05/03 12:00:25;;;;;;;10.40;4.30;;;20.20;19.50;;;;;;6257669;22;39870;-77
2021/05/03 12:03:12;;;;;;;5.83;4.07;;;20.00;19.50;;;;;;6234922;22;36620;-79
2021/05/03 12:05:39;;;;;;;3.97;3.57;;;20.30;18.60;;;;;;6234967;22;36350;-80
2021/05/03 12:08:13;;;;;;;3.30;3.00;;;20.40;17.70;;;;;;6258080;22;39848;-79
2021/05/03 12:10:41;;;;;;;4.10;3.43;;;20.50;17.50;;;;;;6255484;22;39608;-79
2021/05/03 12:13:15;;;;;;;3.87;3.00;;;20.70;17.20;;;;;;6231439;22;38003;-80
2021/05/03 12:15:44;;;;;;;4.10;3.50;;;20.60;17.00;;;;;;6232617;22;36100;-79
2021/05/03 12:18:18;;;;;;;3.40;2.73;;;20.70;17.80;;;;;;6260774;22;40665;-79
2021/05/03 12:20:46;;;;;;;2.77;2.57;;;20.60;17.80;;;;;;6261614;22;39945;-80
2021/05/03 12:23:15;;;;;;;3.00;2.70;;;20.50;17.20;;;;;;6260607;22;38048;-79
2021/05/03 12:25:49;;;;;;;2.77;2.57;;;20.20;17.00;;;;;;6260424;22;37348;-80
2021/05/03 12:28:20;;;;;;;4.67;2.70;;;19.90;16.90;;;;;;6261001;22;40596;-77
2021/05/03 12:30:49;;;;;;;4.13;2.50;;;19.50;17.40;;;;;;6258862;22;39933;-79
2021/05/03 12:33:21;;;;;;;5.30;2.77;;;19.30;17.00;;;;;;6234149;22;36684;-80
2021/05/03 12:35:49;;;;;;;2.50;2.30;;;19.00;16.40;;;;;;6257317;22;37636;-77
2021/05/03 12:38:18;;;;;;;2.40;2.20;;;18.70;18.20;;;;;;6254814;22;39822;-79
2021/05/03 12:40:46;;;;;;;2.33;2.07;;;18.40;17.30;;;;;;6256243;22;39291;-78
2021/05/03 12:43:17;;;;;;;2.30;1.93;;;18.20;17.60;;;;;;6257899;22;39230;-78
2021/05/03 12:45:57;;;;;;;2.33;1.87;;;18.10;16.70;;;;;;6252576;22;37257;-80
2021/05/03 12:48:35;;;;;;;3.40;2.40;;;18.20;17.90;;;;;;6254127;22;40639;-80
2021/05/03 12:51:16;;;;;;;2.57;2.33;;;18.40;17.20;;;;;;6225700;22;37761;-80
2021/05/03 12:53:54;;;;;;;2.57;1.70;;;18.60;17.10;;;;;;6256076;22;37804;-81
2021/05/03 12:56:31;;;;;;;3.23;2.00;;;18.90;16.80;;;;;;6260317;22;37533;-80
2021/05/03 12:59:06;;;;;;;3.00;1.87;;;19.10;15.80;;;;;;6263661;22;39863;-80
2021/05/03 13:01:40;;;;;;;2.27;2.07;;;19.10;16.70;;;;;;6253785;22;39635;-82
2021/05/03 13:04:33;;;;;;;3.00;2.20;;;19.20;17.60;;;;;;6254418;22;37966;-80
2021/05/03 13:07:21;;;;;;;4.00;2.23;;;19.20;17.30;;;;;;6259607;22;37045;-80
2021/05/03 13:30:16;;;;;;;8.10;2.23;;;17.40;18.10;;;;;;6231492;22;36367;-81
2021/05/03 13:32:44;;;;;;;2.50;2.30;;;17.30;17.60;;;;;;6225131;22;39396;-80